createdAt,value
2022-12-28T00:00:31.513Z,7.20
2022-12-28T00:03:17.426Z,11.07
2022-12-28T00:06:03.861Z,5.75
2022-12-28T00:08:52.910Z,5.22
2022-12-28T00:11:38.800Z,5.45
2022-12-28T00:14:25.243Z,6.55
2022-12-28T00:17:11.158Z,8.45
2022-12-28T00:19:57.291Z,6.85
2022-12-28T00:22:43.406Z,7.03
2022-12-28T00:25:29.310Z,6.03
2022-12-28T00:28:15.103Z,7.20
2022-12-28T00:31:00.966Z,5.18
2022-12-28T00:33:46.834Z,4.22
2022-12-28T00:37:09.427Z,4.65
2022-12-28T00:39:38.919Z,3.53
2022-12-28T00:42:24.685Z,3.55
2022-12-28T00:45:10.532Z,3.30
2022-12-28T00:47:56.489Z,4.18
2022-12-28T00:50:43.495Z,5.88
2022-12-28T00:53:29.908Z,4.07
2022-12-28T00:56:17.856Z,4.03
2022-12-28T00:59:03.639Z,5.72
2022-12-28T01:01:49.450Z,4.55
2022-12-28T01:04:35.799Z,6.00
2022-12-28T01:07:21.620Z,4.75
2022-12-28T01:10:07.819Z,3.63
2022-12-28T01:12:55.273Z,5.45
2022-12-28T01:15:41.138Z,4.75
2022-12-28T01:18:26.960Z,4.30
2022-12-28T01:21:16.146Z,5.13
2022-12-28T01:24:04.331Z,4.45
2022-12-28T01:26:51.045Z,3.35
2022-12-28T01:29:36.904Z,4.88
2022-12-28T01:32:22.780Z,3.08
2022-12-28T01:35:09.769Z,5.57
2022-12-28T01:37:57.266Z,2.88
2022-12-28T01:40:44.090Z,4.03
2022-12-28T01:43:43.954Z,5.05
2022-12-28T01:46:38.806Z,5.47
2022-12-28T01:49:37.439Z,5.43
2022-12-28T01:52:38.652Z,6.97
2022-12-28T01:55:35.368Z,4.95
2022-12-28T01:58:25.370Z,6.28
2022-12-28T02:01:11.494Z,5.32
2022-12-28T02:03:57.506Z,6.28
2022-12-28T02:06:44.530Z,6.80
2022-12-28T02:09:35.601Z,5.43
2022-12-28T02:12:22.422Z,7.68
2022-12-28T02:15:08.819Z,10.13
2022-12-28T02:17:54.910Z,5.63
2022-12-28T02:21:02.968Z,5.70
2022-12-28T02:24:07.895Z,8.82
2022-12-28T02:26:58.332Z,8.10
2022-12-28T02:29:44.438Z,8.18
2022-12-28T02:32:54.698Z,4.13
2022-12-28T02:35:43.584Z,3.78
2022-12-28T02:38:39.314Z,4.07
2022-12-28T02:41:26.050Z,7.15
2022-12-28T02:44:33.273Z,4.15
2022-12-28T02:47:37.635Z,2.97
2022-12-28T02:50:26.012Z,4.50
2022-12-28T02:54:38.331Z,2.90
2022-12-28T02:57:58.205Z,3.67
2022-12-28T03:00:58.818Z,4.03
2022-12-28T03:04:03.874Z,3.45
2022-12-28T03:07:35.596Z,4.07
2022-12-28T03:10:27.212Z,4.43
2022-12-28T03:13:36.032Z,5.10
2022-12-28T03:16:29.678Z,2.45
2022-12-28T03:19:34.411Z,4.65
2022-12-28T03:22:40.563Z,2.58
2022-12-28T03:25:52.955Z,7.82
2022-12-28T03:29:04.548Z,3.25
2022-12-28T03:31:53.242Z,3.05
2022-12-28T03:34:40.533Z,2.95
2022-12-28T03:37:35.122Z,3.85
2022-12-28T03:40:35.682Z,2.35
2022-12-28T03:43:43.041Z,2.80
2022-12-28T03:46:52.472Z,3.03
2022-12-28T03:49:40.137Z,3.03
2022-12-28T03:52:26.964Z,3.08
2022-12-28T03:55:17.088Z,2.30
2022-12-28T03:58:05.370Z,3.35
2022-12-28T04:00:51.470Z,2.95
2022-12-28T04:03:41.703Z,2.72
2022-12-28T04:06:28.203Z,1.77
2022-12-28T04:09:15.359Z,2.50
2022-12-28T04:12:01.521Z,2.17
2022-12-28T04:15:16.963Z,2.40
2022-12-28T04:18:02.965Z,4.35
2022-12-28T04:20:48.659Z,1.98
2022-12-28T04:23:35.068Z,1.67
2022-12-28T04:26:41.269Z,1.95
2022-12-28T04:29:29.045Z,3.22
2022-12-28T04:32:27.740Z,2.75
2022-12-28T04:51:06.703Z,2.00
2022-12-28T04:53:53.670Z,2.60
2022-12-28T04:56:39.966Z,2.90
2022-12-28T04:59:25.968Z,3.17
2022-12-28T05:02:12.011Z,3.47
2022-12-28T05:04:58.072Z,2.85
2022-12-28T05:07:44.024Z,2.10
2022-12-28T05:10:30.267Z,2.30
2022-12-28T05:13:16.237Z,3.38
2022-12-28T05:16:03.781Z,4.53
2022-12-28T05:18:49.764Z,4.47
2022-12-28T05:21:35.646Z,4.28
2022-12-28T05:24:21.599Z,3.60
2022-12-28T05:27:07.531Z,3.58
2022-12-28T05:29:53.384Z,2.85
2022-12-28T05:32:39.397Z,2.75
2022-12-28T05:35:25.229Z,4.50
2022-12-28T05:38:11.167Z,4.80
2022-12-28T05:40:57.058Z,2.60
2022-12-28T05:43:43.762Z,2.83
2022-12-28T05:46:31.707Z,3.63
2022-12-28T05:49:17.569Z,3.10
2022-12-28T05:52:03.415Z,4.55
2022-12-28T05:54:49.334Z,3.50
2022-12-28T05:57:35.159Z,2.80
2022-12-28T06:00:21.059Z,3.25
2022-12-28T06:03:07.116Z,4.93
2022-12-28T06:05:53.264Z,3.45
2022-12-28T06:08:39.915Z,5.30
2022-12-28T06:11:27.216Z,5.90
2022-12-28T06:14:12.882Z,3.25
2022-12-28T06:16:58.630Z,4.57
2022-12-28T06:19:44.518Z,4.68
2022-12-28T06:22:30.371Z,3.65
2022-12-28T06:25:16.306Z,4.45
2022-12-28T06:28:01.944Z,5.38
2022-12-28T06:30:52.531Z,6.55
2022-12-28T06:33:39.742Z,6.22
2022-12-28T06:36:31.434Z,5.40
2022-12-28T06:39:17.546Z,5.88
2022-12-28T06:42:03.345Z,10.18
2022-12-28T06:44:49.218Z,6.53
2022-12-28T06:47:37.155Z,8.25
2022-12-28T06:50:22.945Z,7.70
2022-12-28T06:53:08.829Z,5.38
2022-12-28T06:55:56.449Z,7.20
2022-12-28T06:58:43.185Z,5.13
2022-12-28T07:01:38.479Z,4.63
2022-12-28T07:04:24.241Z,6.30
2022-12-28T07:07:10.208Z,5.07
2022-12-28T07:09:56.161Z,4.90
2022-12-28T07:12:42.044Z,4.68
2022-12-28T07:15:27.949Z,5.38
2022-12-28T07:18:13.734Z,8.27
2022-12-28T07:21:14.357Z,8.52
2022-12-28T07:24:00.736Z,9.65
2022-12-28T07:26:46.729Z,8.20
2022-12-28T07:29:32.827Z,10.30
2022-12-28T07:32:18.552Z,10.35
2022-12-28T07:35:05.260Z,10.57
2022-12-28T07:37:51.181Z,10.70
2022-12-28T07:40:37.122Z,9.85
2022-12-28T07:43:22.825Z,7.88
2022-12-28T07:46:11.220Z,8.80
2022-12-28T07:48:57.359Z,7.43
2022-12-28T07:51:43.543Z,7.05
2022-12-28T07:54:29.468Z,13.80
2022-12-28T07:57:15.463Z,8.77
2022-12-28T08:00:02.279Z,7.38
2022-12-28T09:14:04.999Z,18.23
2022-12-28T09:16:52.788Z,16.58
2022-12-28T09:19:38.496Z,12.70
2022-12-28T09:22:24.450Z,20.88
2022-12-28T09:25:10.261Z,18.73
2022-12-28T09:27:59.298Z,28.98
2022-12-28T09:30:45.631Z,26.08
2022-12-28T09:34:23.272Z,22.40
2022-12-28T09:36:56.128Z,17.05
2022-12-28T09:39:42.070Z,15.93
2022-12-28T09:42:29.470Z,12.40
2022-12-28T09:45:16.438Z,13.43
2022-12-28T09:48:13.404Z,11.82
2022-12-28T09:50:59.411Z,13.93
2022-12-28T09:53:45.520Z,13.68
2022-12-28T09:56:43.133Z,12.23
2022-12-28T09:59:32.276Z,15.60
2022-12-28T10:02:30.689Z,15.32
2022-12-28T10:05:16.557Z,18.35
2022-12-28T10:08:03.124Z,35.78
2022-12-28T10:10:50.759Z,29.98
2022-12-28T10:13:55.999Z,35.28
2022-12-28T10:16:48.336Z,30.85
2022-12-28T10:19:34.883Z,34.53
2022-12-28T10:22:21.752Z,35.53
2022-12-28T10:25:33.961Z,34.60
2022-12-28T10:28:21.674Z,27.88
2022-12-28T10:31:09.969Z,31.33
2022-12-28T10:33:55.770Z,33.97
2022-12-28T10:36:41.814Z,41.00
2022-12-28T10:39:30.228Z,47.67
2022-12-28T10:42:41.669Z,47.38
2022-12-28T10:45:48.195Z,46.08
2022-12-28T10:48:37.231Z,52.88
2022-12-28T10:51:25.145Z,46.42
2022-12-28T10:54:28.147Z,52.10
2022-12-28T10:57:19.167Z,52.90
2022-12-28T11:00:22.875Z,53.70
2022-12-28T11:03:22.170Z,54.13
2022-12-28T11:06:27.232Z,52.92
2022-12-28T11:09:22.526Z,49.05
2022-12-28T11:12:23.070Z,48.90
2022-12-28T11:15:14.721Z,47.33
2022-12-28T11:18:20.966Z,46.28
2022-12-28T11:21:11.036Z,35.40
2022-12-28T11:23:56.922Z,41.65
2022-12-28T11:26:48.833Z,37.03
2022-12-28T11:29:34.673Z,38.47
2022-12-28T11:32:35.956Z,46.25
2022-12-28T11:35:25.018Z,40.20
2022-12-28T11:38:12.700Z,39.38
2022-12-28T11:40:59.451Z,40.92
2022-12-28T11:43:50.301Z,31.30
2022-12-28T11:46:37.179Z,25.10
2022-12-28T11:49:22.976Z,18.60
2022-12-28T11:52:17.908Z,17.60
2022-12-28T11:55:22.270Z,21.83
2022-12-28T11:58:29.948Z,17.08
2022-12-28T13:13:54.813Z,19.60
2022-12-28T13:16:41.384Z,25.27
2022-12-28T13:19:29.727Z,20.58
2022-12-28T13:22:33.425Z,24.45
2022-12-28T13:25:31.933Z,36.08
2022-12-28T13:28:27.626Z,28.85
2022-12-28T13:31:22.343Z,20.23
2022-12-28T13:34:26.440Z,23.08
2022-12-28T13:37:17.025Z,26.17
2022-12-28T13:40:16.827Z,34.67
2022-12-28T13:43:08.927Z,39.28
2022-12-28T13:46:00.213Z,35.40
2022-12-28T13:48:50.063Z,34.78
2022-12-28T13:51:39.645Z,34.50
2022-12-28T13:54:27.213Z,35.20
2022-12-28T13:57:45.172Z,39.40
2022-12-28T14:00:22.405Z,50.17
2022-12-28T14:03:11.362Z,61.22
2022-12-28T14:06:02.664Z,49.35
2022-12-28T14:08:51.230Z,41.80
2022-12-28T14:11:38.609Z,41.53
2022-12-28T14:14:25.888Z,42.90
2022-12-28T14:17:13.438Z,35.72
2022-12-28T14:19:59.785Z,32.85
2022-12-28T14:22:47.193Z,40.92
2022-12-28T14:25:42.589Z,41.90
2022-12-28T14:28:38.043Z,34.15
2022-12-28T14:31:28.159Z,47.25
2022-12-28T14:34:30.307Z,41.42
2022-12-28T14:37:29.267Z,39.70
2022-12-28T14:40:32.733Z,51.97
2022-12-28T14:43:25.667Z,48.10
2022-12-28T14:46:36.105Z,54.25
2022-12-28T14:49:35.060Z,62.22
2022-12-28T14:52:23.218Z,59.10
2022-12-28T14:55:22.447Z,57.78
2022-12-28T14:58:20.099Z,49.83
2022-12-28T15:01:11.269Z,44.38
2022-12-28T15:04:05.882Z,49.25
2022-12-28T15:06:55.441Z,43.25
2022-12-28T15:09:44.166Z,52.35
2022-12-28T15:39:48.260Z,61.40
2022-12-28T15:42:40.094Z,58.65
2022-12-28T15:45:26.404Z,61.00
2022-12-28T15:48:12.353Z,51.67
2022-12-28T15:50:57.959Z,57.38
2022-12-28T15:53:43.914Z,62.35
2022-12-28T15:56:32.036Z,54.75
2022-12-28T15:59:18.019Z,53.40
2022-12-28T17:13:07.883Z,55.05
2022-12-28T17:15:54.196Z,56.63
2022-12-28T17:18:40.084Z,52.42
2022-12-28T17:21:26.348Z,53.63
2022-12-28T17:24:12.262Z,56.13
2022-12-28T17:27:05.206Z,53.20
2022-12-28T17:29:53.804Z,47.17
2022-12-28T17:32:39.787Z,54.20
2022-12-28T17:35:26.194Z,43.28
2022-12-28T17:38:12.286Z,42.33
2022-12-28T17:40:58.095Z,44.33
2022-12-28T17:43:52.596Z,45.88
2022-12-28T17:46:41.007Z,50.90
2022-12-28T17:49:27.305Z,63.13
2022-12-28T17:52:17.391Z,60.55
2022-12-28T17:55:03.770Z,56.20
2022-12-28T17:57:49.786Z,64.22
2022-12-28T18:29:46.114Z,65.40
2022-12-28T18:32:32.527Z,62.58
2022-12-28T18:35:18.744Z,64.57
2022-12-28T18:38:05.247Z,62.85
2022-12-28T18:40:53.853Z,55.88
2022-12-28T18:43:41.699Z,64.57
2022-12-28T18:46:29.165Z,53.17
2022-12-28T18:49:17.039Z,50.35
2022-12-28T18:52:04.354Z,53.58
2022-12-28T18:54:51.552Z,47.97
2022-12-28T18:57:39.671Z,54.30
2022-12-28T19:00:27.210Z,41.83
2022-12-28T19:03:14.655Z,43.75
2022-12-28T19:06:04.649Z,54.05
2022-12-28T19:08:53.027Z,52.33
2022-12-28T19:11:40.565Z,48.85
2022-12-28T19:14:28.056Z,46.03
2022-12-28T19:17:14.453Z,42.08
2022-12-28T19:20:01.713Z,50.65
2022-12-28T19:22:48.365Z,50.00
2022-12-28T19:25:39.777Z,55.85
2022-12-28T19:28:26.426Z,49.17
2022-12-28T20:16:30.923Z,52.60
2022-12-28T20:19:16.859Z,42.78
2022-12-28T20:22:03.035Z,45.60
2022-12-28T20:24:48.923Z,53.97
2022-12-28T20:27:35.147Z,61.88
2022-12-28T20:30:21.228Z,66.28
2022-12-28T20:33:07.177Z,59.83
2022-12-28T20:36:00.810Z,59.63
2022-12-28T20:38:47.797Z,54.90
2022-12-28T20:41:52.563Z,55.88
2022-12-28T20:44:38.784Z,60.25
2022-12-28T20:47:24.964Z,60.47
2022-12-28T20:50:10.893Z,58.53
2022-12-28T20:52:56.710Z,55.08
2022-12-28T20:55:42.705Z,60.47
2022-12-28T20:58:28.643Z,56.90
2022-12-28T21:01:15.746Z,55.30
2022-12-28T21:04:01.688Z,53.80
2022-12-28T21:06:47.480Z,58.40
2022-12-28T21:09:33.444Z,58.63
2022-12-28T21:12:19.277Z,62.15
2022-12-28T21:15:05.703Z,59.67
2022-12-28T21:17:51.621Z,56.72
2022-12-28T21:20:39.308Z,57.83
2022-12-28T21:23:25.067Z,53.80
2022-12-28T21:26:16.442Z,52.55
2022-12-28T21:29:02.506Z,46.70
2022-12-28T21:31:48.525Z,44.95
2022-12-28T21:34:34.328Z,37.80
2022-12-28T21:37:35.369Z,42.70
2022-12-28T21:40:21.474Z,37.55
2022-12-28T21:43:07.320Z,36.25
2022-12-28T21:46:12.277Z,39.58
2022-12-28T21:48:58.079Z,41.45
2022-12-28T21:51:44.085Z,37.58
2022-12-28T21:54:30.287Z,45.05
2022-12-28T21:57:16.121Z,41.17
2022-12-28T22:00:22.049Z,36.65
2022-12-28T22:03:26.706Z,40.72
2022-12-28T22:06:12.809Z,39.88
2022-12-28T22:09:17.200Z,42.58
2022-12-28T22:12:22.033Z,45.25
2022-12-28T22:15:28.160Z,52.78
2022-12-28T22:18:53.204Z,52.58
2022-12-28T22:21:29.476Z,53.65
2022-12-28T22:25:29.457Z,52.22
2022-12-28T22:28:15.999Z,46.92
2022-12-28T22:31:08.785Z,50.83
2022-12-28T22:33:55.634Z,49.42
2022-12-28T22:36:41.857Z,50.15
2022-12-28T22:39:27.497Z,58.15
2022-12-28T22:42:15.569Z,51.35
2022-12-28T22:45:01.345Z,44.00
2022-12-28T22:47:48.163Z,47.15
2022-12-28T22:50:39.663Z,44.95
2022-12-28T22:53:28.645Z,41.78
2022-12-28T22:56:20.058Z,57.63
2022-12-28T22:59:07.662Z,52.15
2022-12-28T23:01:56.937Z,62.97
2022-12-28T23:04:42.685Z,66.20
2022-12-28T23:07:28.581Z,66.15
2022-12-28T23:10:14.845Z,56.40
2022-12-28T23:13:00.631Z,49.63
2022-12-28T23:15:55.197Z,49.45
2022-12-28T23:18:59.648Z,39.72
2022-12-28T23:22:04.358Z,43.42
2022-12-28T23:25:08.544Z,49.00
2022-12-28T23:27:54.342Z,49.60
2022-12-28T23:30:43.032Z,45.97
2022-12-28T23:33:28.862Z,42.28
2022-12-28T23:36:14.680Z,46.90
2022-12-28T23:39:00.555Z,50.92
2022-12-28T23:41:49.319Z,59.97
2022-12-28T23:44:35.583Z,54.33
2022-12-28T23:47:21.460Z,59.10
2022-12-28T23:50:08.329Z,56.63
2022-12-28T23:52:54.123Z,51.30
2022-12-28T23:55:40.068Z,49.75
2022-12-28T23:58:25.997Z,49.58
